createdAt,value
2023-01-07T00:01:10.941Z,10.63
2023-01-07T00:03:39.051Z,10.93
2023-01-07T00:06:08.948Z,10.90
2023-01-07T00:08:41.108Z,10.43
2023-01-07T00:13:37.097Z,10.90
2023-01-07T00:16:06.704Z,11.32
2023-01-07T00:18:34.936Z,11.38
2023-01-07T00:21:04.719Z,10.70
2023-01-07T00:23:33.422Z,10.63
2023-01-07T00:26:04.479Z,10.82
2023-01-07T00:28:33.890Z,10.95
2023-01-07T00:31:01.911Z,10.02
2023-01-07T00:33:29.643Z,10.77
2023-01-07T00:36:01.069Z,10.15
2023-01-07T00:38:29.075Z,10.35
2023-01-07T00:40:56.775Z,11.20
2023-01-07T00:43:25.786Z,10.27
2023-01-07T00:45:53.451Z,11.27
2023-01-07T00:48:23.567Z,12.00
2023-01-07T00:50:52.600Z,10.90
2023-01-07T00:53:20.660Z,10.23
2023-01-07T00:55:49.668Z,10.10
2023-01-07T00:58:20.739Z,11.05
2023-01-07T01:00:50.394Z,10.90
2023-01-07T01:03:18.383Z,10.65
2023-01-07T01:05:46.223Z,9.43
2023-01-07T01:08:14.048Z,9.68
2023-01-07T01:10:41.883Z,10.00
2023-01-07T01:13:11.608Z,9.93
2023-01-07T01:15:43.273Z,10.30
2023-01-07T01:18:12.493Z,10.55
2023-01-07T01:20:40.356Z,10.10
2023-01-07T01:23:08.749Z,9.90
2023-01-07T01:25:36.532Z,10.50
2023-01-07T01:28:04.627Z,10.02
2023-01-07T01:30:32.253Z,9.68
2023-01-07T01:32:59.927Z,9.73
2023-01-07T01:35:28.927Z,9.80
2023-01-07T01:37:56.645Z,10.02
2023-01-07T01:40:24.522Z,9.68
2023-01-07T01:42:52.222Z,10.85
2023-01-07T01:45:19.960Z,9.85
2023-01-07T01:47:50.562Z,9.60
2023-01-07T01:50:21.461Z,10.10
2023-01-07T01:52:53.605Z,9.45
2023-01-07T01:57:52.162Z,10.15
2023-01-07T02:00:20.074Z,10.52
2023-01-07T02:02:49.664Z,11.45
2023-01-07T02:05:17.603Z,10.90
2023-01-07T02:07:45.279Z,10.85
2023-01-07T02:10:17.063Z,10.15
2023-01-07T02:12:51.380Z,11.65
2023-01-07T02:15:25.818Z,10.85
2023-01-07T02:18:06.285Z,10.95
2023-01-07T02:20:43.979Z,10.73
2023-01-07T02:23:36.466Z,10.27
2023-01-07T02:29:05.261Z,9.57
2023-01-07T02:32:04.211Z,10.73
2023-01-07T02:34:35.448Z,10.27
2023-01-07T02:37:07.655Z,10.37
2023-01-07T02:42:09.435Z,10.15
2023-01-07T02:44:41.565Z,9.87
2023-01-07T02:49:40.611Z,11.45
2023-01-07T02:52:19.625Z,10.68
2023-01-07T02:54:51.010Z,10.25
2023-01-07T02:57:37.253Z,10.27
2023-01-07T03:00:15.450Z,10.98
2023-01-07T03:02:59.391Z,10.50
2023-01-07T03:05:38.080Z,10.93
2023-01-07T03:08:16.805Z,10.13
2023-01-07T03:10:48.241Z,9.95
2023-01-07T03:13:18.557Z,8.48
2023-01-07T03:15:49.455Z,10.57
2023-01-07T03:18:20.341Z,11.18
2023-01-07T03:20:51.045Z,10.50
2023-01-07T03:23:21.856Z,9.90
2023-01-07T03:25:51.743Z,10.40
2023-01-07T03:28:22.253Z,10.57
2023-01-07T03:30:50.627Z,10.88
2023-01-07T03:33:23.324Z,10.43
2023-01-07T03:35:51.964Z,12.05
2023-01-07T03:38:20.632Z,11.55
2023-01-07T03:40:48.305Z,11.07
2023-01-07T03:43:15.741Z,12.10
2023-01-07T03:45:43.730Z,13.13
2023-01-07T03:48:11.323Z,10.30
2023-01-07T03:50:40.363Z,11.50
2023-01-07T03:53:08.307Z,11.35
2023-01-07T03:55:35.977Z,11.45
2023-01-07T03:58:03.766Z,11.73
2023-01-07T04:00:31.483Z,12.10
2023-01-07T04:02:59.218Z,11.00
2023-01-07T04:05:26.875Z,11.05
2023-01-07T04:07:55.933Z,12.02
2023-01-07T04:10:23.667Z,10.82
2023-01-07T04:12:51.378Z,12.38
2023-01-07T04:15:19.115Z,11.93
2023-01-07T04:17:46.782Z,11.65
2023-01-07T04:20:14.438Z,10.68
2023-01-07T04:22:42.095Z,10.98
2023-01-07T04:25:11.126Z,11.23
2023-01-07T04:27:38.931Z,11.00
2023-01-07T04:30:07.586Z,10.85
2023-01-07T04:32:35.270Z,11.15
2023-01-07T04:35:02.950Z,10.80
2023-01-07T04:37:30.689Z,10.82
2023-01-07T04:39:58.437Z,10.88
2023-01-07T04:42:27.478Z,10.27
2023-01-07T04:44:55.191Z,9.60
2023-01-07T04:47:22.843Z,9.85
2023-01-07T04:49:50.423Z,9.93
2023-01-07T04:52:18.066Z,9.93
2023-01-07T04:54:45.751Z,10.50
2023-01-07T04:57:13.408Z,10.60
2023-01-07T04:59:42.421Z,10.00
2023-01-07T05:02:10.125Z,9.85
2023-01-07T05:04:37.871Z,9.88
2023-01-07T05:07:05.578Z,9.48
2023-01-07T05:09:34.504Z,11.05
2023-01-07T05:12:02.187Z,10.10
2023-01-07T05:14:29.849Z,9.43
2023-01-07T05:16:58.874Z,9.45
2023-01-07T05:19:26.568Z,9.55
2023-01-07T05:21:54.296Z,10.07
2023-01-07T05:24:22.111Z,9.50
2023-01-07T05:26:49.743Z,10.20
2023-01-07T05:29:17.430Z,9.18
2023-01-07T05:31:45.084Z,9.40
2023-01-07T05:34:14.081Z,9.65
2023-01-07T05:36:41.715Z,10.80
2023-01-07T05:39:09.586Z,9.55
2023-01-07T05:41:37.239Z,9.93
2023-01-07T05:44:05.288Z,9.73
2023-01-07T05:46:32.984Z,9.65
2023-01-07T05:49:00.669Z,10.05
2023-01-07T05:51:29.723Z,9.32
2023-01-07T05:53:57.325Z,10.20
2023-01-07T05:56:24.975Z,10.15
2023-01-07T05:58:52.569Z,9.80
2023-01-07T06:01:20.434Z,9.73
2023-01-07T06:03:48.199Z,9.35
2023-01-07T06:06:15.888Z,9.23
2023-01-07T06:08:44.903Z,9.35
2023-01-07T06:11:12.562Z,10.68
2023-01-07T06:13:40.148Z,10.60
2023-01-07T06:16:10.579Z,9.23
2023-01-07T06:18:38.228Z,9.80
2023-01-07T06:21:06.154Z,10.10
2023-01-07T06:23:33.932Z,9.65
2023-01-07T06:26:02.895Z,8.95
2023-01-07T06:28:30.784Z,8.88
2023-01-07T06:30:58.509Z,10.00
2023-01-07T06:33:26.266Z,8.98
2023-01-07T06:35:53.918Z,9.60
2023-01-07T06:38:21.570Z,8.93
2023-01-07T06:40:49.242Z,9.70
2023-01-07T06:43:18.255Z,9.55
2023-01-07T06:45:46.021Z,9.20
2023-01-07T06:48:13.681Z,10.07
2023-01-07T06:50:41.341Z,9.20
2023-01-07T06:53:08.982Z,9.60
2023-01-07T06:55:36.598Z,9.75
2023-01-07T06:58:04.320Z,9.93
2023-01-07T07:00:33.349Z,9.52
2023-01-07T07:03:00.991Z,10.38
2023-01-07T07:05:29.481Z,10.43
2023-01-07T07:07:57.454Z,9.77
2023-01-07T07:10:25.137Z,10.18
2023-01-07T07:12:52.812Z,9.57
2023-01-07T07:15:20.489Z,9.95
2023-01-07T07:17:49.499Z,9.43
2023-01-07T07:20:17.347Z,10.13
2023-01-07T07:22:48.650Z,10.13
2023-01-07T07:25:16.799Z,9.98
2023-01-07T07:27:45.971Z,9.10
2023-01-07T07:30:14.877Z,10.07
2023-01-07T07:32:42.685Z,9.85
2023-01-07T07:35:12.507Z,9.38
2023-01-07T07:37:40.344Z,9.07
2023-01-07T07:40:09.559Z,9.73
2023-01-07T07:43:10.284Z,10.60
2023-01-07T07:45:26.539Z,11.50
2023-01-07T07:47:54.153Z,11.77
2023-01-07T07:50:23.404Z,9.57
2023-01-07T07:52:50.997Z,9.43
2023-01-07T07:55:20.121Z,9.48
2023-01-07T07:57:54.330Z,12.65
2023-01-07T08:00:22.162Z,10.15
2023-01-07T08:02:49.816Z,9.35
2023-01-07T08:05:17.880Z,9.57
2023-01-07T08:07:46.894Z,9.85
2023-01-07T08:10:14.545Z,14.50
2023-01-07T08:12:42.237Z,12.77
2023-01-07T08:15:10.751Z,11.93
2023-01-07T08:17:38.526Z,21.05
2023-01-07T08:20:07.639Z,11.48
2023-01-07T08:22:36.135Z,10.75
2023-01-07T08:25:05.598Z,11.68
2023-01-07T08:27:33.240Z,9.40
2023-01-07T08:30:00.972Z,9.73
2023-01-07T08:32:28.615Z,9.65
2023-01-07T08:34:56.251Z,10.65
2023-01-07T08:37:23.886Z,20.10
2023-01-07T08:39:51.585Z,16.80
2023-01-07T08:42:20.577Z,13.77
2023-01-07T08:44:48.377Z,13.27
2023-01-07T08:47:16.027Z,10.50
2023-01-07T08:49:43.706Z,12.55
2023-01-07T08:52:11.356Z,9.75
2023-01-07T08:54:39.108Z,10.27
2023-01-07T08:57:06.821Z,10.57
2023-01-07T08:59:35.800Z,11.70
2023-01-07T09:02:03.722Z,11.90
2023-01-07T09:04:31.386Z,14.95
2023-01-07T09:06:59.010Z,14.38
2023-01-07T09:09:26.623Z,14.23
2023-01-07T09:11:54.259Z,10.90
2023-01-07T09:14:21.885Z,11.95
2023-01-07T09:16:50.951Z,11.02
2023-01-07T09:19:18.707Z,13.27
2023-01-07T09:21:46.371Z,10.90
2023-01-07T09:24:14.220Z,10.75
2023-01-07T09:26:41.907Z,10.85
2023-01-07T09:29:09.597Z,10.88
2023-01-07T09:31:37.447Z,10.68
2023-01-07T09:34:06.562Z,10.40
2023-01-07T09:36:34.648Z,10.82
2023-01-07T09:39:02.421Z,11.13
2023-01-07T09:41:39.139Z,10.75
2023-01-07T09:44:13.823Z,9.35
2023-01-07T09:46:41.592Z,10.40
2023-01-07T09:49:17.438Z,10.43
2023-01-07T09:51:47.614Z,9.10
2023-01-07T09:54:21.368Z,10.00
2023-01-07T09:56:49.195Z,10.30
2023-01-07T09:59:18.169Z,9.30
2023-01-07T10:01:49.644Z,10.70
2023-01-07T10:04:29.460Z,7.53
2023-01-07T10:07:03.642Z,10.60
2023-01-07T10:09:37.298Z,10.38
2023-01-07T10:12:11.241Z,10.73
2023-01-07T10:14:46.471Z,9.50
2023-01-07T10:17:24.246Z,11.02
2023-01-07T10:19:58.581Z,9.85
2023-01-07T10:22:31.281Z,10.95
2023-01-07T10:25:01.044Z,10.35
2023-01-07T10:27:31.878Z,10.75
2023-01-07T10:30:02.305Z,10.13
2023-01-07T10:32:32.090Z,9.70
2023-01-07T10:35:02.307Z,11.45
2023-01-07T10:37:32.642Z,11.35
2023-01-07T10:40:16.732Z,9.32
2023-01-07T10:42:49.802Z,11.70
2023-01-07T10:45:35.012Z,11.15
2023-01-07T10:48:15.440Z,10.77
2023-01-07T10:50:55.756Z,11.05
2023-01-07T10:53:33.088Z,10.38
2023-01-07T10:56:09.486Z,10.82
2023-01-07T10:58:40.088Z,9.90
2023-01-07T11:01:08.875Z,9.98
2023-01-07T11:03:38.839Z,10.35
2023-01-07T11:06:11.164Z,11.07
2023-01-07T11:08:40.734Z,10.13
2023-01-07T11:11:15.145Z,10.25
2023-01-07T11:13:44.515Z,10.35
2023-01-07T11:16:14.382Z,10.40
2023-01-07T11:18:47.092Z,10.73
2023-01-07T11:21:43.144Z,10.57
2023-01-07T11:24:30.297Z,10.38
2023-01-07T11:27:03.811Z,10.30
2023-01-07T11:29:36.549Z,10.18
2023-01-07T11:32:05.921Z,10.35
2023-01-07T11:34:36.885Z,9.30
2023-01-07T11:37:06.209Z,10.57
2023-01-07T11:39:35.864Z,10.70
2023-01-07T11:42:25.714Z,10.82
2023-01-07T11:45:09.380Z,10.73
2023-01-07T11:47:38.240Z,10.02
2023-01-07T11:50:06.667Z,10.15
2023-01-07T11:52:35.720Z,9.50
2023-01-07T11:55:03.515Z,9.98
2023-01-07T11:57:31.129Z,9.82
2023-01-07T12:00:20.147Z,10.13
2023-01-07T12:03:00.512Z,11.38
2023-01-07T12:05:28.614Z,10.20
2023-01-07T12:07:58.779Z,10.18
2023-01-07T12:10:29.583Z,9.63
2023-01-07T12:12:57.241Z,10.35
2023-01-07T12:15:27.595Z,10.30
2023-01-07T12:18:09.548Z,10.02
2023-01-07T12:20:44.061Z,9.85
2023-01-07T12:23:22.424Z,9.82
2023-01-07T12:25:54.217Z,9.93
2023-01-07T12:28:40.551Z,10.00
2023-01-07T12:31:19.141Z,10.00
2023-01-07T12:34:02.128Z,9.95
2023-01-07T12:36:37.166Z,10.18
2023-01-07T12:39:12.713Z,10.68
2023-01-07T12:41:42.231Z,9.73
2023-01-07T12:44:14.431Z,10.48
2023-01-07T12:49:16.351Z,10.02
2023-01-07T12:51:46.532Z,9.52
2023-01-07T12:54:19.741Z,10.05
2023-01-07T12:56:50.541Z,10.27
2023-01-07T12:59:46.605Z,10.57
2023-01-07T13:02:17.136Z,10.02
2023-01-07T13:04:51.480Z,9.73
2023-01-07T13:07:22.387Z,10.00
2023-01-07T13:09:53.646Z,9.73
2023-01-07T13:12:46.600Z,9.50
2023-01-07T13:15:22.145Z,9.70
2023-01-07T13:17:51.418Z,9.85
2023-01-07T13:20:30.204Z,10.07
2023-01-07T13:22:57.963Z,9.65
2023-01-07T13:25:41.848Z,10.25
2023-01-07T13:28:24.804Z,9.63
2023-01-07T13:31:06.195Z,9.73
2023-01-07T13:33:40.587Z,11.13
2023-01-07T13:36:16.111Z,10.00
2023-01-07T13:39:04.929Z,9.95
2023-01-07T13:41:48.891Z,10.00
2023-01-07T13:44:38.384Z,9.55
2023-01-07T13:47:06.877Z,10.45
2023-01-07T13:49:35.598Z,10.25
2023-01-07T13:52:14.715Z,9.88
2023-01-07T13:54:59.296Z,9.75
2023-01-07T13:57:46.988Z,10.20
2023-01-07T14:00:53.493Z,9.88
2023-01-07T14:03:36.050Z,9.95
2023-01-07T14:06:43.058Z,10.02
2023-01-07T14:09:20.405Z,10.50
2023-01-07T14:12:02.310Z,10.30
2023-01-07T14:14:38.239Z,10.05
2023-01-07T14:17:12.899Z,9.55
2023-01-07T14:19:44.078Z,10.63
2023-01-07T14:22:18.869Z,9.68
2023-01-07T14:25:14.673Z,9.40
2023-01-07T14:28:03.421Z,10.48
2023-01-07T14:30:35.132Z,10.30
2023-01-07T14:33:04.492Z,10.73
2023-01-07T14:35:36.197Z,10.65
2023-01-07T14:38:42.671Z,10.20
2023-01-07T14:41:13.162Z,9.93
2023-01-07T14:43:50.006Z,10.30
2023-01-07T14:46:48.990Z,10.05
2023-01-07T14:49:46.380Z,10.27
2023-01-07T14:52:44.232Z,11.25
2023-01-07T14:55:25.309Z,12.02
2023-01-07T14:58:03.424Z,12.07
2023-01-07T15:00:38.815Z,12.13
2023-01-07T15:03:26.051Z,12.82
2023-01-07T15:06:03.491Z,10.07
2023-01-07T15:09:00.690Z,9.27
2023-01-07T15:11:45.969Z,9.40
2023-01-07T15:14:42.142Z,9.63
2023-01-07T15:17:11.907Z,9.63
2023-01-07T15:19:39.835Z,9.70
2023-01-07T15:22:18.274Z,9.18
2023-01-07T15:24:52.410Z,9.75
2023-01-07T15:27:27.860Z,9.18
2023-01-07T15:30:04.969Z,9.85
2023-01-07T15:32:41.472Z,9.65
2023-01-07T15:35:10.718Z,9.60
2023-01-07T15:37:38.310Z,10.93
2023-01-07T15:40:07.757Z,11.48
2023-01-07T15:42:35.516Z,9.35
2023-01-07T15:45:04.825Z,10.40
2023-01-07T15:47:36.320Z,10.20
2023-01-07T15:50:22.063Z,10.15
2023-01-07T15:52:50.877Z,9.68
2023-01-07T15:55:24.113Z,10.57
2023-01-07T15:57:53.098Z,10.90
2023-01-07T16:00:22.222Z,10.73
2023-01-07T16:02:49.875Z,10.90
2023-01-07T16:05:19.094Z,10.57
2023-01-07T16:07:51.451Z,11.10
2023-01-07T16:10:24.164Z,13.75
2023-01-07T16:12:52.805Z,10.00
2023-01-07T16:15:28.206Z,12.68
2023-01-07T16:17:57.173Z,11.20
2023-01-07T16:20:29.539Z,12.32
2023-01-07T16:23:13.648Z,12.00
2023-01-07T16:25:45.532Z,12.02
2023-01-07T16:28:17.545Z,11.40
2023-01-07T16:30:46.654Z,13.68
2023-01-07T16:33:17.050Z,14.55
2023-01-07T16:35:46.346Z,13.63
2023-01-07T16:38:14.695Z,13.73
2023-01-07T16:40:42.870Z,12.98
2023-01-07T16:43:30.513Z,12.43
2023-01-07T16:46:12.581Z,15.88
2023-01-07T16:48:40.121Z,13.38
2023-01-07T16:51:34.322Z,17.45
2023-01-07T16:54:39.995Z,16.85
2023-01-07T16:57:29.818Z,15.00
2023-01-07T16:59:58.843Z,15.93
2023-01-07T17:02:32.708Z,14.88
2023-01-07T17:05:18.542Z,13.35
2023-01-07T17:07:47.972Z,13.23
2023-01-07T17:10:21.400Z,19.95
2023-01-07T17:12:57.433Z,14.25
2023-01-07T17:15:36.988Z,14.05
2023-01-07T17:18:30.723Z,12.40
2023-01-07T17:20:59.762Z,9.70
2023-01-07T17:23:38.964Z,10.80
2023-01-07T17:26:12.564Z,12.40
2023-01-07T17:28:45.467Z,12.77
2023-01-07T17:31:13.235Z,13.48
2023-01-07T17:33:42.828Z,22.42
2023-01-07T17:36:16.322Z,22.55
2023-01-07T17:38:44.174Z,19.38
2023-01-07T17:41:35.362Z,20.58
2023-01-07T17:44:02.318Z,63.17
2023-01-07T17:46:31.001Z,63.78
2023-01-07T17:49:00.921Z,49.10
2023-01-07T17:51:29.392Z,40.08
2023-01-07T17:53:58.599Z,40.60
2023-01-07T17:56:26.561Z,39.22
2023-01-07T17:58:56.086Z,31.40
2023-01-07T18:01:24.585Z,27.58
2023-01-07T18:03:52.713Z,21.80
2023-01-07T18:06:23.018Z,19.17
2023-01-07T18:08:51.689Z,19.02
2023-01-07T18:11:37.963Z,16.90
2023-01-07T18:14:06.143Z,18.45
2023-01-07T18:16:34.077Z,17.75
2023-01-07T18:19:01.760Z,17.20
2023-01-07T18:21:30.962Z,15.95
2023-01-07T18:23:58.815Z,13.95
2023-01-07T18:26:26.522Z,16.58
2023-01-07T18:28:54.225Z,22.75
2023-01-07T18:31:21.956Z,18.35
2023-01-07T18:33:49.769Z,15.68
2023-01-07T18:36:17.599Z,14.65
2023-01-07T18:38:46.648Z,13.90
2023-01-07T18:41:14.383Z,12.02
2023-01-07T18:43:42.097Z,11.90
2023-01-07T18:46:10.777Z,13.05
2023-01-07T18:48:39.052Z,15.52
2023-01-07T18:51:10.728Z,12.07
2023-01-07T18:53:39.008Z,11.48
2023-01-07T18:56:11.681Z,12.07
2023-01-07T18:58:39.512Z,10.52
2023-01-07T19:01:08.724Z,10.85
2023-01-07T19:03:36.830Z,10.93
2023-01-07T19:06:07.893Z,11.40
2023-01-07T19:08:35.699Z,10.48
2023-01-07T19:11:08.431Z,11.05
2023-01-07T19:13:37.153Z,13.48
2023-01-07T19:16:07.147Z,14.20
2023-01-07T19:18:35.105Z,14.35
2023-01-07T19:21:03.642Z,14.60
2023-01-07T19:27:13.650Z,16.35
2023-01-07T19:29:41.395Z,16.13
2023-01-07T19:32:09.083Z,16.55
2023-01-07T19:34:36.799Z,14.30
2023-01-07T19:37:04.441Z,15.43
2023-01-07T19:39:32.057Z,13.60
2023-01-07T19:42:05.731Z,18.25
2023-01-07T19:44:36.579Z,14.13
2023-01-07T19:47:04.259Z,15.85
2023-01-07T19:49:31.974Z,16.38
2023-01-07T19:51:59.623Z,15.43
2023-01-07T19:54:27.247Z,14.23
2023-01-07T19:56:55.116Z,14.23
2023-01-07T19:59:22.879Z,13.98
2023-01-07T20:01:53.694Z,17.60
2023-01-07T20:04:21.537Z,17.83
2023-01-07T20:06:50.461Z,17.05
2023-01-07T20:09:18.741Z,15.30
2023-01-07T20:11:46.554Z,18.35
2023-01-07T20:14:14.777Z,20.75
2023-01-07T20:16:42.773Z,17.95
2023-01-07T20:19:12.430Z,14.00
2023-01-07T20:21:40.257Z,14.70
2023-01-07T20:24:08.745Z,15.60
2023-01-07T20:26:38.174Z,15.45
2023-01-07T20:29:06.152Z,15.38
2023-01-07T20:31:33.966Z,14.30
2023-01-07T20:34:02.109Z,15.13
2023-01-07T20:44:50.868Z,18.88
2023-01-07T20:51:10.968Z,18.08
2023-01-07T20:51:23.012Z,17.95
2023-01-07T20:53:40.170Z,28.63
2023-01-07T20:56:08.534Z,44.15
2023-01-07T20:58:38.233Z,51.08
2023-01-07T21:01:07.484Z,21.15
2023-01-07T21:03:35.857Z,21.70
2023-01-07T21:06:03.874Z,17.75
2023-01-07T21:08:31.859Z,14.65
2023-01-07T21:11:01.493Z,23.63
2023-01-07T21:13:29.489Z,23.55
2023-01-07T21:16:02.708Z,28.73
2023-01-07T21:18:30.546Z,24.63
2023-01-07T21:20:58.391Z,16.80
2023-01-07T21:23:26.960Z,33.15
2023-01-07T21:25:55.076Z,65.65
2023-01-07T21:28:24.197Z,47.58
2023-01-07T21:30:51.968Z,50.78
2023-01-07T21:33:19.771Z,66.60
2023-01-07T21:35:47.701Z,57.65
2023-01-07T21:38:15.905Z,22.92
2023-01-07T21:40:43.626Z,17.02
2023-01-07T21:43:11.332Z,20.75
2023-01-07T21:45:40.537Z,18.52
2023-01-07T21:48:08.342Z,29.45
2023-01-07T21:50:36.057Z,40.88
2023-01-07T21:53:04.018Z,36.28
2023-01-07T21:55:31.760Z,33.25
2023-01-07T21:57:59.614Z,19.90
2023-01-07T22:00:27.674Z,17.88
2023-01-07T22:02:56.761Z,19.08
2023-01-07T22:05:24.476Z,18.98
2023-01-07T22:07:52.405Z,17.33
2023-01-07T22:10:21.134Z,15.38
2023-01-07T22:12:49.072Z,19.02
2023-01-07T22:15:17.044Z,19.60
2023-01-07T22:17:44.972Z,24.33
2023-01-07T22:20:14.698Z,20.48
2023-01-07T22:22:42.670Z,24.40
2023-01-07T22:25:11.265Z,23.40
2023-01-07T22:27:39.143Z,26.70
2023-01-07T22:30:08.788Z,20.27
2023-01-07T22:32:36.559Z,25.20
2023-01-07T22:37:11.578Z,21.55
2023-01-07T22:37:54.775Z,20.98
2023-01-07T22:40:38.578Z,20.42
2023-01-07T22:43:07.963Z,21.95
2023-01-07T22:45:40.651Z,17.13
2023-01-07T22:48:09.015Z,19.75
2023-01-07T22:50:37.350Z,19.60
2023-01-07T22:53:06.855Z,19.02
2023-01-07T22:55:34.517Z,17.02
2023-01-07T22:58:02.460Z,16.67
2023-01-07T23:00:40.299Z,18.95
2023-01-07T23:03:08.060Z,21.48
2023-01-07T23:05:37.737Z,23.08
2023-01-07T23:08:08.083Z,18.17
2023-01-07T23:10:36.710Z,18.60
2023-01-07T23:13:04.591Z,19.17
2023-01-07T23:15:32.202Z,17.90
2023-01-07T23:17:59.765Z,17.83
2023-01-07T23:20:27.426Z,19.38
2023-01-07T23:22:55.073Z,19.52
2023-01-07T23:25:24.027Z,17.30
2023-01-07T23:27:51.580Z,17.50
2023-01-07T23:30:19.495Z,15.85
2023-01-07T23:32:47.043Z,18.77
2023-01-07T23:35:14.884Z,17.38
2023-01-07T23:37:42.651Z,15.65
2023-01-07T23:40:11.642Z,20.10
2023-01-07T23:42:40.598Z,17.80
2023-01-07T23:45:09.164Z,21.13
2023-01-07T23:47:36.802Z,21.98
2023-01-07T23:50:04.698Z,19.75
2023-01-07T23:52:32.307Z,15.57
2023-01-07T23:54:59.933Z,16.40
2023-01-07T23:57:28.746Z,19.98
2023-01-07T23:59:58.208Z,22.88
